Delta, Utah Weather observations

Data are for observation ending at time listed.
 Day   Time    Ave.   Ave.  Ave.  Vector   Max.   Stn.    Total    Solar   Ave.  
  of    of     Air    Rel.  Wind   Wind    Wind   Baro.  Precip.   Rad.    Soil  
Year   Day     Temp.  Hum.  Speed  Dir.    Gust   Pres.                    Temp. 
2015   (MST)    F      %     mph   deg.    mph     mb.     in.     W/m2     F   
------------------------------------------------------------------------------
 242    4:20   73.3    36    2.5   168      4.7   858.7    0.00       0    75.0
 242    4:30   72.8    38    2.1   135      3.5   858.8    0.00       0    75.0
 242    4:40   70.4    42    1.6   116      2.5   858.8    0.00       0    75.0
 242    4:50   69.3    44    1.5   124      2.5   858.8    0.00       0    74.9
 242    5:00   68.9    45    1.5   117      2.6   858.8    0.00       0    74.9
 242    5:10   68.5    46    1.7   117      2.7   858.8    0.00       0    75.0
 242    5:20   69.0    44    2.2   146      3.1   858.8    0.00       0    75.0
 242    5:30   70.7    40    1.9   167      3.4   858.9    0.00       0    74.9
 242    5:40   70.6    42    1.1   156      2.3   858.9    0.00       0    74.8
 242    5:50   71.0    40    2.1   192      4.6   859.0    0.00       0    74.8
 242    6:00   72.1    39    2.5   181      4.8   859.1    0.00       4    74.6
 242    6:10   71.5    40    2.3   159      4.3   859.2    0.00       6    74.7
 242    6:20   69.3    44    2.9   132      4.8   859.3    0.00      17    74.7
 242    6:30   69.5    42    3.2   147      5.1   859.3    0.00      26    74.8
 242    6:40   70.6    41    3.2   155      5.6   859.3    0.00      36    74.7
 242    6:50   71.7    40    3.3   162      5.6   859.4    0.00      38    74.7
 242    7:00   71.6    41    3.1   159      5.5   859.5    0.00      44    74.6
 242    7:10   72.2    41    3.0   162      6.4   859.5    0.00      51    74.6
 242    7:20   73.2    40    3.3   166      5.8   859.6    0.00      64    74.6
 242    7:30   73.9    38    3.4   170      6.4   859.6    0.00      82    74.5
 242    7:40   74.2    38    3.7   175      6.5   859.7    0.00     150    74.5
 242    7:50   74.4    39    3.6   175      6.6   859.7    0.00     103    74.5
 242    8:00   74.5    38    3.9   176      6.7   859.7    0.00     101    74.5
 242    8:10   74.7    38    3.3   175      6.3   859.8    0.00     116    74.5
 242    8:20   75.1    38    3.9   181      6.9   859.8    0.00     130    74.4
 242    8:30   75.3    38    4.0   184      7.7   859.8    0.00     127    74.4
 242    8:40   76.0    37    3.9   188      6.9   859.8    0.00     160    74.3
 242    8:50   76.7    36    4.1   191      7.5   859.8    0.00     164    74.4
 242    9:00   77.4    36    4.1   190      7.1   859.8    0.00     181    74.4
 242    9:10   78.9    33    4.0   182      8.8   859.9    0.00     331    74.4
 242    9:20   79.8    34    4.3   200      9.2   859.9    0.00     255    74.4
 242    9:30   79.5    34    3.9   208      8.0   860.0    0.00     227    74.4
 242    9:40   79.5    34    3.9   210      7.7   860.0    0.00     176    74.4
 242    9:50   79.6    32    4.8   204      9.9   860.0    0.00     178    74.5
 242   10:00   79.9    32    4.5   210      7.5   859.9    0.00     276    74.4
 242   10:10   80.6    32    4.7   208      8.8   859.9    0.00     324    74.5
 242   10:20   81.0    31    4.6   202      8.5   859.9    0.00     248    74.4
 242   10:30   80.9    31    4.5   201      8.0   859.9    0.00     248    74.6
 242   10:40   80.8    30    4.5   204      8.7   859.9    0.00     242    74.6
 242   10:50   81.6    30    5.2   197      9.6   859.9    0.00     402    74.6
 242   11:00   82.3    29    4.3   204      9.3   859.8    0.00     441    74.6
 242   11:10   83.2    28    4.7   197     10.2   859.8    0.00     550    74.6
 242   11:20   83.9    27    5.2   202     11.0   859.8    0.00     505    74.6
 242   11:30   83.7    26    4.2   212      7.7   859.6    0.00     336    74.7
 242   11:40   83.6    26    3.8   204      6.9   859.5    0.00     349    74.8
 242   11:50   83.9    28    3.9   198      9.3   859.4    0.00     449    74.8
 242   12:00   84.3    27    5.1   201     11.7   859.3    0.00     354    74.8
 242   12:10   84.3    27    3.9   204      7.5   859.1    0.00     373    74.9
 242   12:20   84.7    26    4.9   204      8.3   859.0    0.00     415    75.0
 242   12:30   85.6    24    5.8   216     10.4   858.9    0.00     594    75.0
 242   12:40   86.0    23    5.0   217      8.6   858.7    0.00     362    75.0
 242   12:50   85.7    22    6.0   208     11.2   858.6    0.00     361    75.2
 242   13:00   85.4    23    5.9   210      9.8   858.4    0.00     305    75.2
 242   13:10   85.2    24    4.4   210      9.2   858.3    0.00     303    75.3
 242   13:20   85.6    24    5.0   202     10.6   858.2    0.00     408    75.4
 242   13:30   85.9    22    5.4   204     11.7   858.0    0.00     374    75.4
 242   13:40   85.9    23    5.6   207     11.0   857.9    0.00     354    75.4
 242   13:50   86.4    22    5.2   208      9.6   857.8    0.00     488    75.6
 242   14:00   87.0    21    5.6   210     10.6   857.7    0.00     479    75.6
 242   14:10   87.2    21    5.5   203     11.1   857.6    0.00     388    75.6
 242   14:20   87.0    22    4.8   210      9.7   857.5    0.00     370    75.6
 242   14:30   87.0    20    4.3   208      8.8   857.3    0.00     272    75.7
 242   14:40   86.9    20    4.6   212      9.1   857.3    0.00     299    75.7
 242   14:50   86.8    21    4.4   214      7.4   857.2    0.00     295    75.8
 242   15:00   87.4    21    4.0   214      8.1   857.0    0.00     482    75.9
 242   15:10   87.9    20    5.2   226     10.3   856.9    0.00     326    75.9
 242   15:20   87.6    20    4.6   213      8.3   856.9    0.00     276    75.9
 242   15:30   87.0    21    4.9   213     10.4   856.8    0.00     234    76.0
 242   15:40   87.0    21    4.3   210      8.4   856.7    0.00     206    76.0
 242   15:50   86.7    22    4.3   209      7.5   856.6    0.00     213    76.1
 242   16:00   87.1    22    4.9   207      9.7   856.5    0.00     207    76.2
 242   16:10   87.1    20    5.7   205     14.4   856.4    0.00     163    76.3
 242   16:20   86.8    21    3.8   220      7.2   856.3    0.00     163    76.2
 242   16:30   86.6    21    4.3   221      6.6   856.3    0.00     150    76.3
 242   16:40   86.2    22    3.6   225      6.0   856.2    0.00     147    76.3
 242   16:50   86.1    22    4.4   232      8.0   856.2    0.00     148    76.4
 242   17:00   86.1    22    4.9   228      9.0   856.1    0.00     102    76.4
 242   17:10   85.4    22    4.4   230      8.0   856.1    0.00      91    76.4
 242   17:20   85.6    22    3.3   234      5.8   856.1    0.00      90    76.4
 242   17:30   85.7    20    3.9   228      7.6   856.2    0.00      91    76.4
 242   17:40   86.1    20    3.4   213      6.4   856.2    0.00     101    76.4
 242   17:50   86.1    21    3.8   216      6.2   856.2    0.00      90    76.4
 242   18:00   85.5    21    3.9   211      7.7   856.2    0.00      66    76.4
 242   18:10   84.4    22    3.5   207      6.4   856.2    0.00      46    76.5
 242   18:20   83.6    22    3.5   208      6.4   856.1    0.00      30    76.6
 242   18:30   83.2    21    3.1   201      5.6   856.1    0.00      23    76.5
 242   18:40   82.7    22    3.2   204      5.9   856.1    0.00      18    76.5
 242   18:50   82.3    23    2.8   205      5.3   856.1    0.00      12    76.5
 242   19:00   81.8    24    2.6   205      4.6   856.1    0.00       6    76.5
 242   19:10   81.2    24    2.9   205      4.7   856.1    0.00       5    76.6
 242   19:20   80.8    24    3.0   208      5.0   856.1    0.00       0    76.5
 242   19:30   81.1    22    3.4   214      5.9   856.2    0.00       0    76.6
 242   19:40   80.9    22    2.9   208      5.0   856.3    0.00       0    76.6
 242   19:50   80.2    23    2.5   198      5.7   856.4    0.00       0    76.6
 242   20:00   79.4    24    2.2   202      4.5   856.5    0.00       0    76.6
 242   20:10   79.4    23    2.2   213      3.7   856.6    0.00       0    76.5
 242   20:20   79.0    24    2.5   194      4.8   856.8    0.00       0    76.5
 242   20:30   78.3    24    2.0   205      4.2   856.8    0.00       0    76.5
 242   20:40   78.0    24    2.0   209      3.7   856.9    0.00       0    76.5
 242   20:50   77.5    24    2.5   220      4.3   857.0    0.00       0    76.4
 242   21:00   77.6    24    2.5   203      4.7   857.1    0.00       0    76.4
 242   21:10   74.4    28    2.0   140      4.1   857.3    0.00       0    76.5
 242   21:20   72.5    30    2.7   128      4.6   857.4    0.00       0    76.4
 242   21:30   72.2    29    2.2   137      3.0   857.5    0.00       0    76.4
 242   21:40   71.8    29    2.2   129      3.4   857.5    0.00       0    76.4
 242   21:50   71.7    30    1.6   141      4.1   857.6    0.00       0    76.3
 242   22:00   71.6    30    0.9   264      3.7   857.8    0.00       0    76.3
 242   22:10   71.3    31    0.9     4      1.9   857.8    0.00       0    76.2
 242   22:20   70.3    32    1.0   104      1.8   857.9    0.00       0    76.3
 242   22:30   70.5    32    2.9   130      3.9   857.8    0.00       0    76.2
 242   22:40   71.5    30    2.8   139      4.1   857.8    0.00       0    76.2
 242   22:50   72.2    29    2.9   145      4.2   857.8    0.00       0    76.1
 242   23:00   72.8    29    2.2   151      3.7   857.9    0.00       0    75.9
 242   23:10   73.9    27    2.5   155      3.8   857.9    0.00       0    76.0
 242   23:20   74.7    26    1.3   186      2.6   858.0    0.00       0    75.8
 242   23:30   74.6    26    2.0   182      3.5   858.1    0.00       0    75.9
 242   23:40   72.2    30    2.9   147      4.2   858.2    0.00       0    75.7
 242   23:50   70.4    32    2.2   149      4.0   858.2    0.00       0    75.8
 243    0:00   70.0    33    1.5   156      2.4   858.4    0.00       0    75.8
 243    0:10   70.1    32    1.5   158      2.9   858.5    0.00       0    75.8
 243    0:20   69.9    32    1.0   158      2.0   858.6    0.00       0    75.8
 243    0:30   69.7    33    1.9   149      3.2   858.5    0.00       0    75.7
 243    0:40   69.3    34    0.5   166      1.2   858.6    0.00       0    75.7
 243    0:50   69.3    34    0.6   181      1.8   858.6    0.00       0    75.6
 243    1:00   68.8    34    0.8   353      2.6   858.7    0.00       0    75.7
 243    1:10   68.2    36    0.0   168      0.4   858.8    0.00       0    75.7
 243    1:20   68.1    36    0.7   275      2.6   858.7    0.00       0    75.5
 243    1:30   68.3    34    0.8   216      2.0   858.7    0.00       0    75.4
 243    1:40   67.8    37    1.1   301      2.7   858.8    0.00       0    75.4
 243    1:50   66.7    39    2.7   318      5.4   858.8    0.00       0    75.4
 243    2:00   66.5    39    1.2   325      2.6   858.7    0.00       0    75.3
 243    2:10   65.3    43    1.6    81      3.2   858.8    0.00       0    75.3
 243    2:20   64.5    44    1.5   336      2.8   858.8    0.00       0    75.3
 243    2:30   64.6    43    1.3   328      3.6   859.0    0.00       0    75.3
 243    2:40   64.1    45    0.3    90      2.1   859.2    0.00       0    75.2
 243    2:50   63.3    48    0.1   271      1.4   859.2    0.00       0    75.1
 243    3:00   62.9    48    0.7   297      3.1   859.2    0.00       0    75.1
 243    3:10   63.1    46    1.0   293      2.3   859.2    0.00       0    75.2
 243    3:20   62.7    47    1.4   282      4.4   859.3    0.00       0    75.0
 243    3:30   62.3    47    2.0   292      4.0   859.3    0.00       0    75.0
 243    3:40   61.9    48    2.0   289      5.1   859.4    0.00       0    74.9
 243    3:50   61.3    49    1.1    55      2.9   859.5    0.00       0    74.9
 243    4:00   61.1    51    0.1   302      0.8   859.5    0.00       0    74.8
 243    4:10   60.5    53    0.1   347      1.2   859.5    0.00       0    74.8

Return to Delta, Utah graphs page.


Western Regional Climate Center,wrcc@dri.edu